Startpagina
METAR-TAF:

METAR-TAF

Vliegvelden :

Vilanculos, Mozambique

breedte: 22-00S, lengte: 035-19E, hoogte: 20 m

Actueel weer

Dit bericht is 5 uur en het 27 minuten geleden gemaakt, om 18:00 UTC
Wind 9 kt uit het zuidzuidoosten
Temperatuur 22°C
Vochtigheid 69%
Druk 1024 hPa
Zicht 10 km of meer
Verspreide wolken op 8000 ft

METAR: FQVL 171800Z 16009KT 9999 SCT080 22/16 Q1024

Tijdstip: 01:27 (23:27 UTC)

Verwachting

Dit bericht is 7 uur en het 27 minuten geleden gemaakt, om 16:00 UTC
Verwachting geldig van 17 om 18 UTC tot 18 om 18 UTC
Wind 9 kt uit het zuidoosten
Zicht 10 km of meer
Weinig wolken op 2000 ft
Verspreide wolken op 8000 ft
Wijzigt naar
van 18 om 00 UTC tot 18 om 02 UTC
Wind 9 kt uit het oosten
Wijzigt naar
van 18 om 06 UTC tot 18 om 08 UTC
Wind 10 kt uit het zuiden
Weinig wolken op 2500 ft

TAF: FQVL 171600Z 1718/1818 13009KT 9999 FEW020 SCT080 TX26/1813Z TN16/1803Z BECMG 1800/1802 09009KT BECMG 1806/1808 19010KT FEW025

Waarnemingen en weersverwachtingen van meer dan 4000 vliegvelden (METAR en TAF).

De beschikbare stations zijn de gele en rode punten op de kaart.

Ga met uw muis naar het station om de naam te zien.

Klik dan om waarnemingen en weersverwachtingen te zien.

kaart wijzigen: klik op de groene knoppen met een zwart kruis om in te zoomen, op de groene knop met een streepje om uit te zoomen of op de groene pijlen voor aangrenzende kaarten.


METAR-TAF: